Time;durP1;ratioP1;P1;durP2;ratioP2;P2;SDS_P1;SDS_P2;PMS_P1;PMS_P2;Temp;Humidity;BMP_temperature;BMP_pressure;BME280_temperature;BME280_humidity;BME280_pressure;Samples;Min_cycle;Max_cycle;Signal;HPM_P1;HPM_P2
2022/04/25 00:02:11;;;;;;;1.55;1.27;;;11.30;99.90;;;;;;5001021;28;20061;-68
2022/04/25 00:04:37;;;;;;;0.13;0.13;;;11.20;99.90;;;;;;5002410;28;20393;-68
2022/04/25 00:07:03;;;;;;;0.10;0.10;;;11.20;99.90;;;;;;5006589;28;20124;-68
2022/04/25 00:09:28;;;;;;;0.20;0.20;;;11.20;99.90;;;;;;4996476;28;20564;-68
2022/04/25 00:11:54;;;;;;;0.38;0.38;;;11.00;99.90;;;;;;5006926;28;20789;-68
2022/04/25 00:14:20;;;;;;;0.90;0.80;;;11.20;99.90;;;;;;4999067;28;20039;-68
2022/04/25 00:16:45;;;;;;;0.43;0.43;;;11.10;99.90;;;;;;5003427;28;20049;-68
2022/04/25 00:19:11;;;;;;;0.43;0.43;;;11.10;99.90;;;;;;5006544;28;20057;-68
2022/04/25 00:21:36;;;;;;;1.55;1.45;;;11.20;99.90;;;;;;4992285;28;20070;-68
2022/04/25 00:24:02;;;;;;;0.00;0.00;;;11.20;99.90;;;;;;4998099;28;20116;-68
2022/04/25 00:26:27;;;;;;;0.55;0.55;;;11.20;99.90;;;;;;4996743;28;20496;-68
2022/04/25 00:28:53;;;;;;;0.10;0.10;;;11.10;99.90;;;;;;5011901;28;20405;-68
2022/04/25 00:31:19;;;;;;;1.25;1.15;;;11.10;99.90;;;;;;5005330;28;20050;-68
2022/04/25 00:33:44;;;;;;;0.10;0.10;;;11.20;99.90;;;;;;5007576;28;20057;-68
2022/04/25 00:36:10;;;;;;;1.92;0.47;;;11.20;99.90;;;;;;5014726;28;20057;-68
2022/04/25 00:38:35;;;;;;;0.20;0.20;;;11.30;99.90;;;;;;5013399;28;20049;-68
2022/04/25 00:41:01;;;;;;;0.00;0.00;;;11.30;99.90;;;;;;5000041;28;20401;-68
2022/04/25 00:43:26;;;;;;;0.00;0.00;;;11.20;99.90;;;;;;5003751;28;20088;-68
2022/04/25 00:45:52;;;;;;;0.10;0.10;;;11.30;99.90;;;;;;5006879;28;20051;-68
2022/04/25 00:48:17;;;;;;;0.03;0.03;;;11.20;99.90;;;;;;5006559;28;20501;-68
2022/04/25 00:50:45;;;;;;;0.10;0.10;;;11.40;99.90;;;;;;5013115;28;20128;-68
2022/04/25 00:53:11;;;;;;;0.17;0.17;;;11.30;99.90;;;;;;5013548;28;20124;-67
2022/04/25 00:55:36;;;;;;;0.03;0.03;;;11.30;99.90;;;;;;5004167;28;20057;-68
2022/04/25 00:58:03;;;;;;;2.55;1.13;;;11.40;99.90;;;;;;5002508;28;20048;-68
2022/04/25 01:00:29;;;;;;;0.60;0.60;;;11.40;99.90;;;;;;5010956;28;20042;-68
2022/04/25 01:02:54;;;;;;;4.93;1.17;;;11.30;99.90;;;;;;5020730;28;20044;-68
2022/04/25 01:05:20;;;;;;;0.10;0.10;;;11.40;99.90;;;;;;5013826;28;20041;-68
2022/04/25 01:07:46;;;;;;;1.35;1.25;;;11.50;99.90;;;;;;5001867;28;20042;-68
2022/04/25 01:10:11;;;;;;;0.22;0.22;;;11.40;99.90;;;;;;5008667;28;20389;-68
2022/04/25 01:12:37;;;;;;;1.20;0.93;;;11.40;99.90;;;;;;4994519;28;20042;-68
2022/04/25 01:15:08;;;;;;;0.00;0.00;;;11.50;99.90;;;;;;5007350;28;20144;-68
2022/04/25 01:17:34;;;;;;;0.10;0.10;;;11.40;99.90;;;;;;4993906;28;20058;-68
2022/04/25 01:20:00;;;;;;;0.10;0.10;;;11.50;99.90;;;;;;5009325;28;20076;-68
2022/04/25 01:22:39;;;;;;;0.20;0.20;;;11.30;99.90;;;;;;5003271;28;20125;-67
2022/04/25 01:27:49;;;;;;;0.10;0.10;;;11.30;99.90;;;;;;5002452;28;20515;-68
2022/04/25 01:30:14;;;;;;;0.00;0.00;;;11.10;99.90;;;;;;5007689;28;20042;-68
2022/04/25 01:32:40;;;;;;;0.00;0.00;;;11.10;99.90;;;;;;5007030;28;20050;-68
2022/04/25 01:35:06;;;;;;;0.55;0.55;;;11.10;99.90;;;;;;5012844;28;20046;-68
2022/04/25 01:37:32;;;;;;;0.10;0.10;;;11.30;99.90;;;;;;5006763;28;20097;-67
2022/04/25 01:39:58;;;;;;;0.10;0.10;;;11.30;99.90;;;;;;5010556;28;20500;-67
2022/04/25 01:42:24;;;;;;;0.17;0.17;;;11.20;99.90;;;;;;5012880;28;20115;-67
2022/04/25 01:44:50;;;;;;;0.20;0.20;;;11.10;99.90;;;;;;5010161;28;20050;-67
2022/04/25 01:47:16;;;;;;;1.73;1.13;;;11.10;99.90;;;;;;5005241;28;20053;-67
2022/04/25 01:49:42;;;;;;;0.40;0.40;;;11.00;99.90;;;;;;5000463;28;20050;-67
2022/04/25 01:52:24;;;;;;;0.85;0.63;;;11.10;99.90;;;;;;5012689;28;20105;-67
2022/04/25 01:54:50;;;;;;;0.25;0.25;;;11.00;99.90;;;;;;5004336;28;20108;-67
2022/04/25 01:57:16;;;;;;;0.20;0.20;;;11.00;99.90;;;;;;4994256;28;20146;-67
2022/04/25 01:59:43;;;;;;;0.05;0.05;;;11.00;99.90;;;;;;5007971;28;20136;-67
2022/04/25 02:02:10;;;;;;;0.15;0.15;;;11.00;99.90;;;;;;5011898;28;20096;-67
2022/04/25 02:04:36;;;;;;;0.10;0.10;;;11.00;99.90;;;;;;5003481;28;20041;-67
2022/04/25 02:07:02;;;;;;;0.50;0.30;;;11.00;99.90;;;;;;5006355;28;20038;-67
2022/04/25 02:09:27;;;;;;;0.10;0.10;;;10.90;99.90;;;;;;5011263;28;20034;-67
2022/04/25 02:11:53;;;;;;;0.10;0.10;;;10.90;99.90;;;;;;5012518;28;20100;-67
2022/04/25 02:14:18;;;;;;;0.10;0.10;;;11.00;99.90;;;;;;5005621;28;20050;-67
2022/04/25 02:16:44;;;;;;;0.40;0.40;;;10.90;99.90;;;;;;5003537;28;20042;-67
2022/04/25 02:19:10;;;;;;;0.10;0.10;;;10.80;99.90;;;;;;4992326;28;20053;-67
2022/04/25 02:21:36;;;;;;;0.38;0.38;;;10.70;99.90;;;;;;5010299;28;20050;-67
2022/04/25 02:24:02;;;;;;;0.30;0.30;;;10.70;99.90;;;;;;5007355;28;20038;-67
2022/04/25 02:26:28;;;;;;;0.57;0.57;;;10.60;99.90;;;;;;4991826;28;20057;-67
2022/04/25 02:28:54;;;;;;;0.43;0.43;;;10.70;99.90;;;;;;4993577;28;20097;-68
2022/04/25 02:31:20;;;;;;;0.10;0.10;;;10.50;99.90;;;;;;4997163;28;20042;-67
2022/04/25 02:33:46;;;;;;;0.00;0.00;;;10.50;99.90;;;;;;5002789;28;20791;-67
2022/04/25 02:36:12;;;;;;;0.70;0.70;;;10.50;99.90;;;;;;4992683;28;20078;-67
2022/04/25 02:38:39;;;;;;;0.50;0.50;;;10.50;99.90;;;;;;4998497;28;20038;-67
2022/04/25 02:41:05;;;;;;;0.10;0.10;;;10.50;99.90;;;;;;5008490;28;20046;-67
2022/04/25 02:43:39;;;;;;;0.10;0.10;;;10.50;99.90;;;;;;4996146;28;20129;-67
2022/04/25 02:46:08;;;;;;;0.25;0.25;;;10.40;99.90;;;;;;5007266;28;20038;-67
2022/04/25 02:48:35;;;;;;;1.75;1.08;;;10.40;99.90;;;;;;5010824;28;20393;-67
2022/04/25 02:51:01;;;;;;;0.10;0.10;;;10.40;99.90;;;;;;5004760;28;20050;-67
2022/04/25 02:53:27;;;;;;;0.30;0.30;;;10.30;99.90;;;;;;5007920;28;20049;-67
2022/04/25 02:55:53;;;;;;;0.10;0.10;;;10.40;99.90;;;;;;5013780;28;20080;-67
2022/04/25 02:58:20;;;;;;;0.10;0.10;;;10.30;99.90;;;;;;5022219;28;20469;-67
2022/04/25 03:00:46;;;;;;;0.13;0.13;;;10.20;99.90;;;;;;5004907;28;20038;-67
2022/04/25 03:03:16;;;;;;;0.10;0.10;;;10.20;99.90;;;;;;4997732;28;20054;-67
2022/04/25 03:05:44;;;;;;;0.52;0.52;;;10.10;99.90;;;;;;5004216;28;20046;-67
2022/04/25 03:08:14;;;;;;;0.20;0.20;;;10.20;99.90;;;;;;4999600;28;20042;-67
2022/04/25 03:10:42;;;;;;;0.52;0.52;;;10.20;99.90;;;;;;5000301;28;20042;-67
2022/04/25 03:13:08;;;;;;;0.15;0.15;;;10.10;99.90;;;;;;5000996;28;20053;-67
2022/04/25 03:15:37;;;;;;;0.20;0.20;;;10.00;99.90;;;;;;5008966;28;20128;-67
2022/04/25 03:18:03;;;;;;;0.00;0.00;;;10.00;99.90;;;;;;4997335;28;20065;-67
2022/04/25 03:20:28;;;;;;;2.03;0.45;;;10.00;99.90;;;;;;4999806;28;20485;-67
2022/04/25 03:22:57;;;;;;;0.20;0.20;;;10.00;99.90;;;;;;5006359;28;20080;-67
2022/04/25 03:25:23;;;;;;;0.10;0.10;;;9.90;99.90;;;;;;5038412;28;20049;-67
2022/04/25 03:27:48;;;;;;;0.28;0.28;;;9.90;99.90;;;;;;5010082;28;20374;-67
2022/04/25 03:30:14;;;;;;;0.15;0.15;;;9.90;99.90;;;;;;5007381;28;20048;-67
2022/04/25 03:32:47;;;;;;;0.10;0.10;;;9.90;99.90;;;;;;5007133;28;20049;-67
2022/04/25 03:35:14;;;;;;;0.80;0.68;;;10.00;99.90;;;;;;5006582;28;20388;-67
2022/04/25 03:37:40;;;;;;;0.20;0.20;;;9.90;99.90;;;;;;5008550;28;20069;-67
2022/04/25 03:40:08;;;;;;;3.20;1.85;;;9.90;99.90;;;;;;5003825;28;20375;-67
2022/04/25 03:42:34;;;;;;;0.10;0.10;;;10.00;99.90;;;;;;5008813;28;20052;-67
2022/04/25 03:45:00;;;;;;;0.10;0.10;;;10.00;99.90;;;;;;5003082;28;20129;-67
2022/04/25 03:47:28;;;;;;;0.32;0.32;;;10.00;99.90;;;;;;5005686;28;20511;-67
2022/04/25 03:49:53;;;;;;;0.20;0.20;;;10.00;99.90;;;;;;5004115;28;20046;-67
2022/04/25 03:52:19;;;;;;;0.30;0.30;;;10.10;99.90;;;;;;5010306;28;20084;-67
2022/04/25 03:57:28;;;;;;;0.10;0.10;;;10.20;99.90;;;;;;5000289;28;20052;-67
2022/04/25 03:59:54;;;;;;;0.65;0.55;;;10.20;99.90;;;;;;5002662;28;20045;-67
2022/04/25 04:02:19;;;;;;;0.20;0.20;;;10.20;99.90;;;;;;4990967;28;20082;-67
2022/04/25 04:04:45;;;;;;;1.30;0.52;;;10.20;99.90;;;;;;5005400;28;20045;-67
2022/04/25 04:07:10;;;;;;;0.47;0.47;;;10.30;99.90;;;;;;5006728;28;20382;-67
2022/04/25 04:09:45;;;;;;;0.10;0.10;;;10.30;99.90;;;;;;4994746;28;20097;-67
2022/04/25 04:12:15;;;;;;;0.10;0.10;;;10.30;99.90;;;;;;4990695;28;20046;-67
2022/04/25 04:14:41;;;;;;;0.90;0.90;;;10.30;99.90;;;;;;5004782;28;20283;-67
2022/04/25 04:17:07;;;;;;;0.10;0.10;;;10.30;99.90;;;;;;4996797;28;20043;-67
2022/04/25 04:19:34;;;;;;;0.35;0.35;;;10.40;99.90;;;;;;4991271;28;20081;-67
2022/04/25 04:22:03;;;;;;;0.10;0.10;;;10.40;99.90;;;;;;4990862;28;20053;-67
2022/04/25 04:24:29;;;;;;;1.88;0.75;;;10.40;99.90;;;;;;5019001;28;20068;-67
2022/04/25 04:26:57;;;;;;;0.82;0.43;;;10.30;99.90;;;;;;4999694;28;20047;-67
2022/04/25 04:29:23;;;;;;;0.10;0.10;;;10.40;99.90;;;;;;4997750;28;20050;-67
2022/04/25 04:31:48;;;;;;;0.10;0.10;;;10.40;99.90;;;;;;4999305;28;20107;-67
2022/04/25 04:34:14;;;;;;;0.10;0.10;;;10.30;99.90;;;;;;4998686;28;20045;-67
2022/04/25 04:36:40;;;;;;;0.20;0.20;;;10.30;99.90;;;;;;5008702;28;20053;-67
2022/04/25 04:39:05;;;;;;;2.63;1.02;;;10.40;99.90;;;;;;4994028;28;20045;-67
2022/04/25 04:41:31;;;;;;;0.80;0.60;;;10.40;99.90;;;;;;5036709;28;20046;-67
2022/04/25 04:43:59;;;;;;;0.40;0.40;;;10.50;99.90;;;;;;5005734;28;20037;-67
2022/04/25 04:46:25;;;;;;;0.10;0.10;;;10.50;99.90;;;;;;5005677;28;20038;-67
2022/04/25 04:48:50;;;;;;;0.15;0.15;;;10.50;99.90;;;;;;5001059;28;20038;-67
2022/04/25 04:51:16;;;;;;;0.20;0.20;;;10.50;99.90;;;;;;4991346;28;20096;-67
2022/04/25 04:53:42;;;;;;;0.35;0.35;;;10.50;99.90;;;;;;4998934;28;20041;-67
2022/04/25 04:56:07;;;;;;;1.20;0.60;;;10.50;99.90;;;;;;4999647;28;20057;-67
2022/04/25 04:58:33;;;;;;;0.10;0.10;;;10.50;99.90;;;;;;5002631;28;20093;-67
2022/04/25 05:00:59;;;;;;;0.10;0.10;;;10.40;99.90;;;;;;4996739;28;20053;-67
2022/04/25 05:03:25;;;;;;;0.10;0.10;;;10.50;99.90;;;;;;5005736;28;20051;-67
2022/04/25 05:05:52;;;;;;;0.10;0.10;;;10.50;99.90;;;;;;5000081;28;20046;-67
2022/04/25 05:08:18;;;;;;;0.10;0.10;;;10.60;99.90;;;;;;4991563;28;20061;-67
2022/04/25 05:10:43;;;;;;;0.10;0.10;;;10.40;99.90;;;;;;4997862;28;20046;-67
2022/04/25 05:13:09;;;;;;;0.45;0.45;;;10.50;99.90;;;;;;5010073;28;20072;-67
2022/04/25 05:15:36;;;;;;;0.10;0.10;;;10.60;99.90;;;;;;4996463;28;20125;-67
2022/04/25 05:18:02;;;;;;;0.00;0.00;;;10.40;99.90;;;;;;5007222;28;20057;-67
2022/04/25 05:20:29;;;;;;;0.38;0.38;;;10.40;99.90;;;;;;5012661;28;20054;-67
2022/04/25 05:22:55;;;;;;;0.20;0.20;;;10.50;99.90;;;;;;5008488;28;20042;-67
2022/04/25 05:25:23;;;;;;;0.63;0.63;;;10.50;99.90;;;;;;5002843;28;20046;-67
2022/04/25 05:27:52;;;;;;;0.52;0.50;;;10.50;99.90;;;;;;5002790;28;20104;-67
2022/04/25 05:30:18;;;;;;;0.30;0.30;;;10.50;99.90;;;;;;5004241;28;20050;-67
2022/04/25 05:32:49;;;;;;;0.10;0.10;;;10.50;99.90;;;;;;5013357;28;20042;-67
2022/04/25 05:35:19;;;;;;;0.10;0.10;;;10.50;99.90;;;;;;5013065;28;20033;-67
2022/04/25 05:37:46;;;;;;;0.10;0.10;;;10.50;99.90;;;;;;5006363;28;20066;-67
2022/04/25 05:40:12;;;;;;;2.53;0.80;;;10.60;99.90;;;;;;5013184;28;20061;-67
2022/04/25 05:42:40;;;;;;;19.13;1.38;;;10.40;99.90;;;;;;5011615;28;20081;-67
2022/04/25 05:45:07;;;;;;;0.32;0.32;;;10.40;99.90;;;;;;5006305;28;20046;-68
2022/04/25 05:47:33;;;;;;;0.03;0.03;;;10.40;99.90;;;;;;5007689;28;20050;-67
2022/04/25 05:52:44;;;;;;;0.10;0.10;;;10.40;99.90;;;;;;4997866;28;20137;-67
2022/04/25 05:55:10;;;;;;;0.10;0.10;;;10.50;99.90;;;;;;5015004;28;20136;-67
2022/04/25 05:57:36;;;;;;;0.10;0.10;;;10.60;99.90;;;;;;5030742;28;20054;-67
2022/04/25 06:00:04;;;;;;;0.20;0.20;;;10.70;99.90;;;;;;5008882;28;20053;-67
2022/04/25 06:02:29;;;;;;;0.55;0.55;;;10.60;99.90;;;;;;4993816;28;20081;-67
2022/04/25 06:04:55;;;;;;;0.10;0.10;;;10.70;99.90;;;;;;4994791;28;20070;-67
2022/04/25 06:07:20;;;;;;;0.30;0.30;;;10.70;99.90;;;;;;5011629;28;20131;-67
2022/04/25 06:09:46;;;;;;;0.20;0.20;;;10.70;99.90;;;;;;5011527;28;20112;-67
2022/04/25 06:12:11;;;;;;;0.65;0.55;;;10.80;99.90;;;;;;5012208;28;20108;-67
2022/04/25 06:14:38;;;;;;;0.10;0.10;;;10.80;99.90;;;;;;5000217;28;20727;-67
2022/04/25 06:17:03;;;;;;;0.00;0.00;;;10.90;99.90;;;;;;5006304;28;20042;-68
2022/04/25 06:19:29;;;;;;;0.20;0.20;;;10.90;99.90;;;;;;5010594;28;20041;-68
2022/04/25 06:21:54;;;;;;;0.00;0.00;;;10.90;99.90;;;;;;4996420;28;20093;-68
2022/04/25 06:24:20;;;;;;;0.10;0.10;;;10.90;99.90;;;;;;5011926;28;20112;-68
2022/04/25 06:26:47;;;;;;;1.80;0.47;;;11.00;99.90;;;;;;4994557;28;20405;-67
2022/04/25 06:29:13;;;;;;;0.20;0.20;;;10.90;99.90;;;;;;5009034;28;20054;-67
2022/04/25 06:31:38;;;;;;;0.00;0.00;;;11.00;99.90;;;;;;5011358;28;20042;-67
2022/04/25 06:34:04;;;;;;;0.00;0.00;;;11.00;99.90;;;;;;5011145;28;20504;-67
2022/04/25 06:36:29;;;;;;;0.28;0.28;;;11.00;99.90;;;;;;5011671;28;20125;-67
2022/04/25 06:38:55;;;;;;;1.17;0.85;;;10.90;99.90;;;;;;5011558;28;20045;-67
2022/04/25 06:41:23;;;;;;;0.45;0.45;;;10.80;99.90;;;;;;5011981;28;20050;-67
2022/04/25 06:43:49;;;;;;;0.30;0.30;;;11.00;99.90;;;;;;5009791;28;20084;-67
2022/04/25 06:46:14;;;;;;;1.02;0.75;;;11.10;99.90;;;;;;5011258;28;20077;-67
2022/04/25 06:48:40;;;;;;;0.10;0.10;;;11.00;99.90;;;;;;5009612;28;20042;-67
2022/04/25 06:51:05;;;;;;;1.13;0.47;;;11.10;99.90;;;;;;5012210;28;20049;-67
2022/04/25 06:53:31;;;;;;;0.10;0.10;;;11.10;99.90;;;;;;5013499;28;20037;-67
2022/04/25 06:55:57;;;;;;;0.47;0.47;;;11.00;99.90;;;;;;5016123;28;20139;-67
2022/04/25 06:58:23;;;;;;;0.10;0.10;;;11.20;99.90;;;;;;5009819;28;20413;-67
2022/04/25 07:00:49;;;;;;;0.00;0.00;;;11.00;99.90;;;;;;5010510;28;20412;-67
2022/04/25 07:03:15;;;;;;;0.10;0.10;;;11.10;99.90;;;;;;5012191;28;20053;-67
2022/04/25 07:05:42;;;;;;;0.57;0.57;;;11.10;99.90;;;;;;5009446;28;20056;-67
2022/04/25 07:08:08;;;;;;;0.10;0.10;;;11.10;99.90;;;;;;5011054;28;20042;-67
2022/04/25 07:10:33;;;;;;;0.35;0.35;;;11.00;99.90;;;;;;5011320;28;20503;-67
2022/04/25 07:12:59;;;;;;;0.00;0.00;;;11.00;99.90;;;;;;5009385;28;20046;-67
2022/04/25 07:15:25;;;;;;;0.00;0.00;;;11.30;99.90;;;;;;5009193;28;20056;-67
2022/04/25 07:17:55;;;;;;;0.10;0.10;;;11.20;99.90;;;;;;5041893;28;20068;-67
2022/04/25 07:20:21;;;;;;;0.10;0.10;;;11.20;99.90;;;;;;5009996;28;20413;-68
2022/04/25 07:30:59;;;;;;;0.00;0.00;;;11.30;99.90;;;;;;5010395;28;20061;-67
2022/04/25 07:33:26;;;;;;;0.17;0.17;;;11.40;99.90;;;;;;5011180;28;20050;-67
2022/04/25 07:35:53;;;;;;;0.25;0.25;;;11.50;99.90;;;;;;5009957;28;20073;-67
2022/04/25 07:38:19;;;;;;;0.20;0.20;;;11.40;99.90;;;;;;5008660;28;20046;-67
2022/04/25 07:40:44;;;;;;;0.10;0.10;;;11.30;99.90;;;;;;5010796;28;20053;-67
2022/04/25 07:43:10;;;;;;;0.20;0.20;;;11.50;99.90;;;;;;5008843;28;20041;-67
2022/04/25 07:45:35;;;;;;;0.35;0.30;;;11.50;99.90;;;;;;5014635;28;20045;-67
2022/04/25 07:48:01;;;;;;;0.20;0.20;;;11.50;99.90;;;;;;5017520;28;20407;-67
2022/04/25 07:50:27;;;;;;;0.10;0.10;;;11.60;99.90;;;;;;5029717;28;20052;-67
2022/04/25 07:52:52;;;;;;;0.10;0.10;;;11.70;99.90;;;;;;5014409;28;20481;-67
2022/04/25 07:55:18;;;;;;;0.30;0.30;;;11.70;99.90;;;;;;5010882;28;20081;-67
2022/04/25 07:57:45;;;;;;;0.10;0.10;;;11.80;99.90;;;;;;5007417;28;20042;-67
2022/04/25 08:00:11;;;;;;;0.05;0.05;;;11.60;99.90;;;;;;5010761;28;20050;-67
2022/04/25 08:02:37;;;;;;;0.10;0.10;;;11.60;99.90;;;;;;5009909;28;20132;-67
2022/04/25 08:05:02;;;;;;;1.27;1.17;;;11.60;99.90;;;;;;5008763;28;20125;-67
2022/04/25 08:07:29;;;;;;;0.52;0.52;;;11.60;99.90;;;;;;5010523;28;20041;-67
2022/04/25 08:09:55;;;;;;;1.17;0.55;;;11.70;99.90;;;;;;5008588;28;20050;-67
2022/04/25 08:18:01;;;;;;;0.10;0.10;;;12.00;99.90;;;;;;5027858;28;20131;-67
2022/04/25 08:20:36;;;;;;;0.30;0.30;;;12.20;99.90;;;;;;5010217;28;20042;-67
2022/04/25 08:23:10;;;;;;;0.10;0.10;;;12.20;99.90;;;;;;5008489;28;20045;-67
2022/04/25 08:25:36;;;;;;;0.20;0.20;;;12.30;99.90;;;;;;5009807;28;20048;-67
2022/04/25 08:28:02;;;;;;;0.10;0.10;;;12.20;99.90;;;;;;5010405;28;20052;-67
2022/04/25 08:30:28;;;;;;;0.20;0.20;;;12.40;99.90;;;;;;5010502;28;20049;-67
2022/04/25 08:32:55;;;;;;;0.10;0.10;;;12.60;99.90;;;;;;5007246;28;20533;-67
2022/04/25 08:35:21;;;;;;;0.10;0.10;;;12.70;99.90;;;;;;5010074;28;20425;-67
2022/04/25 08:37:48;;;;;;;0.10;0.10;;;12.60;99.90;;;;;;5007418;28;20069;-67
2022/04/25 08:40:14;;;;;;;0.10;0.10;;;12.70;99.90;;;;;;5010592;28;20050;-67
2022/04/25 08:42:40;;;;;;;0.68;0.68;;;12.60;99.90;;;;;;5010083;28;20089;-67
2022/04/25 08:45:06;;;;;;;0.10;0.10;;;12.70;99.90;;;;;;5006777;28;20077;-67
2022/04/25 08:47:38;;;;;;;0.10;0.10;;;12.90;99.90;;;;;;5010379;28;20038;-67
2022/04/25 08:50:04;;;;;;;1.20;1.10;;;12.80;99.50;;;;;;5014199;28;20053;-67
2022/04/25 08:52:31;;;;;;;0.05;0.05;;;12.90;99.80;;;;;;5011261;28;20037;-67
2022/04/25 08:54:57;;;;;;;0.10;0.10;;;12.90;99.80;;;;;;5013754;28;20132;-67
2022/04/25 08:57:28;;;;;;;0.17;0.17;;;13.10;99.90;;;;;;5014281;28;20160;-67
2022/04/25 08:59:55;;;;;;;0.15;0.15;;;13.00;99.90;;;;;;5011811;28;20053;-67
2022/04/25 09:02:22;;;;;;;0.57;0.57;;;13.20;99.90;;;;;;5014053;28;20168;-67
2022/04/25 09:04:49;;;;;;;0.00;0.00;;;13.00;99.70;;;;;;5014304;28;20116;-67
2022/04/25 09:07:18;;;;;;;0.15;0.15;;;13.10;99.90;;;;;;5013776;28;20046;-67
2022/04/25 09:09:44;;;;;;;0.10;0.10;;;13.20;99.90;;;;;;5012203;28;20042;-67
2022/04/25 09:12:12;;;;;;;0.50;0.50;;;13.20;99.90;;;;;;5014364;28;20045;-67
2022/04/25 09:14:40;;;;;;;0.32;0.32;;;13.30;99.90;;;;;;5016467;28;20037;-67
2022/04/25 09:17:07;;;;;;;0.25;0.25;;;13.20;99.20;;;;;;5027501;28;20481;-67
2022/04/25 09:19:33;;;;;;;0.10;0.10;;;13.30;99.70;;;;;;5013697;28;20042;-67
2022/04/25 09:21:59;;;;;;;0.30;0.08;;;13.40;99.80;;;;;;5012907;28;20050;-67
2022/04/25 09:24:29;;;;;;;0.70;0.70;;;13.60;99.50;;;;;;5011869;28;20400;-67
2022/04/25 09:27:06;;;;;;;0.25;0.25;;;13.80;98.90;;;;;;5012324;28;20528;-67
2022/04/25 09:29:32;;;;;;;3.40;0.95;;;14.00;98.60;;;;;;5013174;28;20137;-67
2022/04/25 09:31:58;;;;;;;0.20;0.20;;;14.20;98.30;;;;;;5011420;28;20392;-67
2022/04/25 09:37:08;;;;;;;1.15;1.05;;;14.50;97.40;;;;;;5013586;28;20100;-67
2022/04/25 09:39:34;;;;;;;0.10;0.10;;;14.50;97.70;;;;;;5011021;28;20824;-67
2022/04/25 09:42:00;;;;;;;0.10;0.10;;;14.50;97.00;;;;;;5012106;28;20077;-67
2022/04/25 09:44:28;;;;;;;0.10;0.10;;;14.20;97.70;;;;;;5015321;28;20037;-67
2022/04/25 09:46:54;;;;;;;0.10;0.10;;;14.20;98.20;;;;;;5011150;28;20042;-67
2022/04/25 09:49:20;;;;;;;0.82;0.73;;;14.10;98.70;;;;;;5010443;28;20053;-67
2022/04/25 09:51:59;;;;;;;0.00;0.00;;;14.10;98.10;;;;;;5013046;28;20042;-67
2022/04/25 09:54:25;;;;;;;0.10;0.10;;;14.30;98.60;;;;;;5011051;28;20054;-67
2022/04/25 09:56:51;;;;;;;1.55;0.80;;;14.20;97.50;;;;;;5011738;28;20133;-67
2022/04/25 09:59:18;;;;;;;0.65;0.65;;;14.30;97.70;;;;;;5012342;28;20077;-67
2022/04/25 10:01:45;;;;;;;0.25;0.25;;;14.20;98.30;;;;;;5013214;28;20057;-67
2022/04/25 10:04:36;;;;;;;0.10;0.10;;;14.00;97.90;;;;;;5010737;28;20068;-67
2022/04/25 10:07:04;;;;;;;1.65;0.90;;;13.90;98.30;;;;;;5012799;28;20077;-67
2022/04/25 10:09:31;;;;;;;0.10;0.10;;;13.80;98.40;;;;;;5011940;28;20556;-67
2022/04/25 10:12:03;;;;;;;0.20;0.20;;;13.70;98.60;;;;;;5011227;28;20141;-67
2022/04/25 10:14:28;;;;;;;0.05;0.05;;;13.60;98.70;;;;;;5011695;28;20041;-67
2022/04/25 10:16:58;;;;;;;0.25;0.20;;;13.40;98.80;;;;;;5012172;28;20045;-67
2022/04/25 10:19:24;;;;;;;0.20;0.20;;;13.40;99.10;;;;;;5010695;28;20048;-67
2022/04/25 10:21:54;;;;;;;0.10;0.10;;;13.20;99.10;;;;;;5012056;28;20512;-67
2022/04/25 10:24:19;;;;;;;0.43;0.43;;;13.20;99.40;;;;;;5011653;28;20408;-67
2022/04/25 10:26:50;;;;;;;0.00;0.00;;;13.20;99.40;;;;;;5012349;28;20038;-67
2022/04/25 10:29:26;;;;;;;0.43;0.43;;;13.20;99.30;;;;;;5011504;28;20041;-67
2022/04/25 10:31:57;;;;;;;0.10;0.10;;;13.30;99.10;;;;;;5011631;28;20053;-67
2022/04/25 10:34:44;;;;;;;0.10;0.10;;;13.10;99.20;;;;;;5011933;28;20041;-67
2022/04/25 10:37:28;;;;;;;0.63;0.63;;;13.20;99.90;;;;;;5010498;28;20135;-67
2022/04/25 10:39:55;;;;;;;0.15;0.15;;;13.10;99.30;;;;;;5011895;28;20052;-67
2022/04/25 10:45:04;;;;;;;0.10;0.10;;;13.40;99.20;;;;;;5010055;28;20061;-67
2022/04/25 10:47:30;;;;;;;0.20;0.20;;;13.40;98.90;;;;;;5011803;28;20038;-67
2022/04/25 10:49:56;;;;;;;0.08;0.08;;;13.50;99.00;;;;;;5009999;28;20052;-67
2022/04/25 10:52:34;;;;;;;0.20;0.20;;;13.60;98.90;;;;;;5010734;28;20048;-67
2022/04/25 10:55:29;;;;;;;0.10;0.10;;;13.80;98.80;;;;;;5009840;28;20405;-67
2022/04/25 10:58:04;;;;;;;0.30;0.30;;;13.90;98.50;;;;;;5011757;28;20048;-67
2022/04/25 11:00:39;;;;;;;0.50;0.50;;;14.10;98.40;;;;;;5011049;28;20056;-67
2022/04/25 11:03:15;;;;;;;1.27;0.73;;;14.30;98.40;;;;;;5010131;28;20054;-67
2022/04/25 11:05:48;;;;;;;0.05;0.05;;;14.50;97.30;;;;;;5010554;28;20045;-67
2022/04/25 11:08:19;;;;;;;0.00;0.00;;;14.50;97.50;;;;;;5009724;28;20496;-67
2022/04/25 11:10:47;;;;;;;0.25;0.25;;;14.60;97.20;;;;;;5011343;28;20140;-67
2022/04/25 11:13:14;;;;;;;0.10;0.10;;;14.50;97.80;;;;;;5010969;28;20579;-67
2022/04/25 11:15:47;;;;;;;0.00;0.00;;;14.60;98.10;;;;;;5023076;28;20799;-67
2022/04/25 11:18:35;;;;;;;0.70;0.35;;;14.50;98.30;;;;;;5013126;28;20049;-67
2022/04/25 11:21:05;;;;;;;0.57;0.55;;;14.50;98.40;;;;;;5010724;28;20208;-67
2022/04/25 11:23:45;;;;;;;0.10;0.10;;;15.00;98.40;;;;;;5009571;28;20457;-67
2022/04/25 11:26:36;;;;;;;0.60;0.50;;;15.50;98.00;;;;;;5009582;28;20058;-67
2022/04/25 11:29:08;;;;;;;0.10;0.10;;;15.70;97.40;;;;;;5010883;28;20390;-67
2022/04/25 11:31:38;;;;;;;0.00;0.00;;;15.40;97.00;;;;;;5011174;28;20041;-67
2022/04/25 11:34:07;;;;;;;0.28;0.28;;;15.20;97.30;;;;;;5040399;28;20046;-67
2022/04/25 11:36:42;;;;;;;0.57;0.50;;;15.40;97.60;;;;;;5010891;28;20042;-67
2022/04/25 11:41:52;;;;;;;0.50;0.50;;;15.40;97.30;;;;;;5010150;28;20077;-67
2022/04/25 11:44:18;;;;;;;1.60;1.13;;;15.50;96.80;;;;;;5010914;28;21090;-68
2022/04/25 11:46:45;;;;;;;0.20;0.20;;;15.10;96.80;;;;;;5010771;28;20045;-67
2022/04/25 11:49:11;;;;;;;0.20;0.20;;;15.10;96.90;;;;;;5010473;28;20052;-67
2022/04/25 11:51:38;;;;;;;0.40;0.40;;;15.00;97.00;;;;;;5008998;28;20124;-67
2022/04/25 11:54:09;;;;;;;0.25;0.25;;;15.10;96.80;;;;;;5010706;28;20115;-67
2022/04/25 11:56:40;;;;;;;0.10;0.10;;;15.10;96.60;;;;;;5009452;28;20489;-68
2022/04/25 11:59:08;;;;;;;0.20;0.20;;;15.30;96.90;;;;;;5011138;28;20042;-68
2022/04/25 12:01:47;;;;;;;0.25;0.25;;;16.00;96.20;;;;;;5008674;28;20125;-68
2022/04/25 12:04:16;;;;;;;0.10;0.10;;;16.30;96.50;;;;;;5010875;28;20049;-68
2022/04/25 12:07:08;;;;;;;0.10;0.10;;;16.20;96.20;;;;;;5008896;28;20061;-68
2022/04/25 12:15:34;;;;;;;0.17;0.17;;;16.10;95.70;;;;;;5025687;28;20108;-68
2022/04/25 12:15:38;;;;;;;0.00;0.00;;;16.70;95.50;;;;;;5006986;28;20129;-68
2022/04/25 12:18:19;;;;;;;0.85;0.85;;;16.50;94.90;;;;;;5008240;28;20585;-68
2022/04/25 12:20:50;;;;;;;0.57;0.52;;;17.00;95.10;;;;;;5010250;28;20073;-68
2022/04/25 12:23:27;;;;;;;4.22;2.17;;;17.50;95.50;;;;;;5012004;28;20042;-68
2022/04/25 12:25:53;;;;;;;1.20;0.63;;;18.00;94.60;;;;;;5016991;28;20363;-68
2022/04/25 12:28:23;;;;;;;0.00;0.00;;;17.60;93.50;;;;;;5017089;28;20049;-68
2022/04/25 12:31:06;;;;;;;0.10;0.10;;;17.40;94.20;;;;;;5015977;28;20501;-68
2022/04/25 12:33:43;;;;;;;0.10;0.10;;;17.40;94.10;;;;;;5014430;28;20458;-68
2022/04/25 12:36:30;;;;;;;0.45;0.38;;;18.10;93.90;;;;;;5017034;28;20503;-68
2022/04/25 12:39:10;;;;;;;0.10;0.10;;;17.70;93.40;;;;;;5005830;28;20045;-68
2022/04/25 12:41:38;;;;;;;0.20;0.20;;;17.70;94.20;;;;;;5016429;28;20116;-68
2022/04/25 12:44:09;;;;;;;0.00;0.00;;;17.50;94.10;;;;;;5014477;28;20432;-68
2022/04/25 12:46:53;;;;;;;1.70;1.60;;;17.00;93.60;;;;;;5016385;28;20492;-68
2022/04/25 12:49:20;;;;;;;0.00;0.00;;;16.80;94.00;;;;;;5016715;28;20489;-68
2022/04/25 12:51:52;;;;;;;0.03;0.03;;;17.30;94.20;;;;;;5015913;28;20130;-68
2022/04/25 12:54:41;;;;;;;0.10;0.10;;;17.20;93.80;;;;;;5014593;28;20484;-68
2022/04/25 12:57:15;;;;;;;1.30;1.17;;;17.10;93.90;;;;;;5004585;28;20054;-68
2022/04/25 12:59:46;;;;;;;1.08;0.65;;;17.30;93.50;;;;;;5015397;28;20738;-68
2022/04/25 13:02:14;;;;;;;0.20;0.20;;;17.90;93.80;;;;;;5016923;28;20050;-68
2022/04/25 13:04:57;;;;;;;0.57;0.45;;;18.00;93.00;;;;;;5014033;28;20049;-68
2022/04/25 13:07:23;;;;;;;2.35;0.30;;;18.20;92.80;;;;;;5022740;28;20041;-68
2022/04/25 13:09:53;;;;;;;0.10;0.10;;;18.60;92.40;;;;;;5036108;28;20091;-68
2022/04/25 13:12:19;;;;;;;1.13;0.70;;;18.50;92.20;;;;;;5033808;28;20041;-68
2022/04/25 13:14:45;;;;;;;0.00;0.00;;;18.40;92.40;;;;;;5015840;28;20096;-68
2022/04/25 13:17:11;;;;;;;0.00;0.00;;;18.70;92.50;;;;;;5016880;28;20104;-68
2022/04/25 13:19:37;;;;;;;0.10;0.10;;;18.60;92.30;;;;;;5015870;28;20129;-68
2022/04/25 13:22:03;;;;;;;0.20;0.20;;;18.80;92.30;;;;;;5014318;28;20126;-68
2022/04/25 13:24:29;;;;;;;0.17;0.17;;;19.30;90.80;;;;;;5016242;28;20123;-68
2022/04/25 13:26:54;;;;;;;0.05;0.05;;;19.10;91.30;;;;;;5013765;28;20041;-68